HXA9790 ZGOW-ZSPD
Flight info
| Callsign | HXA9790 |
|---|---|
| Flight time | 1h 35m |
| Altitude | 29100 |
| Route | VETIB W155 TEBON A470 LJG B221 SHZ W58 XSY |
| Aircraft | A320/M-SDE2E3FGILRWXY/LB1 |
Departure
| Time | 2026-05-07 10:32 |
|---|---|
| Airport | Jieyang Chaoshan International Airport (ZGOW) |
Arrival
| Time | 2026-05-07 12:07 |
|---|---|
| Airport | Shanghai Pudong International Airport (ZSPD) |
| Time | Latitude | Longitude | Altitude | Speed | Heading |
|---|---|---|---|---|---|
| 2026-05-07 09:51 | 23.54860 | 116.50586 | 20 ft | 0 kts | 159° |
| 2026-05-07 10:24 | 23.54873 | 116.50580 | 22 ft | 2 kts | 158° |
| 2026-05-07 10:24 | 23.54888 | 116.50574 | 21 ft | 2 kts | 158° |
| 2026-05-07 10:24 | 23.54903 | 116.50567 | 21 ft | 2 kts | 159° |
| 2026-05-07 10:24 | 23.54918 | 116.50561 | 20 ft | 2 kts | 159° |
| 2026-05-07 10:25 | 23.54934 | 116.50554 | 20 ft | 2 kts | 159° |
| 2026-05-07 10:25 | 23.54949 | 116.50548 | 20 ft | 2 kts | 163° |
| 2026-05-07 10:25 | 23.54963 | 116.50545 | 21 ft | 1 kts | 232° |
| 2026-05-07 10:25 | 23.54964 | 116.50545 | 21 ft | 0 kts | 236° |
| 2026-05-07 10:26 | 23.54963 | 116.50545 | 21 ft | 1 kts | 230° |
| 2026-05-07 10:27 | 23.54945 | 116.50538 | 21 ft | 3 kts | 202° |
| 2026-05-07 10:27 | 23.54920 | 116.50520 | 21 ft | 11 kts | 220° |
| 2026-05-07 10:27 | 23.54830 | 116.50430 | 21 ft | 19 kts | 222° |
| 2026-05-07 10:27 | 23.54821 | 116.50333 | 23 ft | 13 kts | 303° |
| 2026-05-07 10:28 | 23.54853 | 116.50264 | 24 ft | 8 kts | 261° |
| 2026-05-07 10:28 | 23.54828 | 116.50225 | 24 ft | 6 kts | 225° |
| 2026-05-07 10:28 | 23.54805 | 116.50200 | 25 ft | 4 kts | 224° |
| 2026-05-07 10:28 | 23.54791 | 116.50184 | 27 ft | 2 kts | 224° |
| 2026-05-07 10:29 | 23.54781 | 116.50174 | 28 ft | 6 kts | 224° |
| 2026-05-07 10:29 | 23.54708 | 116.50098 | 26 ft | 22 kts | 223° |
| 2026-05-07 10:29 | 23.54569 | 116.49994 | 24 ft | 25 kts | 217° |
| 2026-05-07 10:30 | 23.54291 | 116.49737 | 24 ft | 27 kts | 217° |
| 2026-05-07 10:30 | 23.54153 | 116.49621 | 24 ft | 18 kts | 221° |
| 2026-05-07 10:30 | 23.54164 | 116.49550 | 28 ft | 5 kts | 304° |
| 2026-05-07 10:30 | 23.54169 | 116.49542 | 30 ft | 0 kts | 304° |
| 2026-05-07 10:31 | 23.54179 | 116.49526 | 32 ft | 7 kts | 304° |
| 2026-05-07 10:31 | 23.54192 | 116.49508 | 34 ft | 2 kts | 309° |
| 2026-05-07 10:31 | 23.54254 | 116.49483 | 40 ft | 12 kts | 15° |
| 2026-05-07 10:32 | 23.54282 | 116.49504 | 40 ft | 0 kts | 40° |
| 2026-05-07 10:32 | 23.54404 | 116.49614 | 40 ft | 60 kts | 40° |
| 2026-05-07 10:32 | 23.54896 | 116.50066 | 42 ft | 122 kts | 40° |
| 2026-05-07 10:32 | 23.55389 | 116.50514 | 42 ft | 155 kts | 40° |
| 2026-05-07 10:33 | 23.56262 | 116.51307 | 335 ft | 164 kts | 41° |
| 2026-05-07 10:33 | 23.57104 | 116.52092 | 1087 ft | 158 kts | 40° |
| 2026-05-07 10:33 | 23.57954 | 116.52861 | 1737 ft | 160 kts | 42° |
| 2026-05-07 10:33 | 23.58851 | 116.53585 | 2297 ft | 163 kts | 22° |
| 2026-05-07 10:34 | 23.59969 | 116.53623 | 2817 ft | 165 kts | 338° |
| 2026-05-07 10:34 | 23.61029 | 116.53135 | 3302 ft | 170 kts | 335° |
| 2026-05-07 10:34 | 23.62184 | 116.52601 | 3543 ft | 191 kts | 336° |
| 2026-05-07 10:34 | 23.63484 | 116.52009 | 3783 ft | 214 kts | 336° |
| 2026-05-07 10:35 | 23.64935 | 116.51355 | 4023 ft | 238 kts | 336° |
| 2026-05-07 10:35 | 23.66519 | 116.50647 | 4590 ft | 250 kts | 336° |
| 2026-05-07 10:35 | 23.68140 | 116.49928 | 5414 ft | 252 kts | 336° |
| 2026-05-07 10:35 | 23.69770 | 116.49208 | 6065 ft | 253 kts | 336° |
| 2026-05-07 10:36 | 23.71408 | 116.48484 | 6767 ft | 255 kts | 335° |
| 2026-05-07 10:36 | 23.73061 | 116.47754 | 7538 ft | 257 kts | 335° |
| 2026-05-07 10:36 | 23.74728 | 116.47016 | 8308 ft | 260 kts | 335° |
| 2026-05-07 10:36 | 23.76416 | 116.46269 | 9061 ft | 264 kts | 334° |
| 2026-05-07 10:37 | 23.78129 | 116.45511 | 9786 ft | 267 kts | 334° |
| 2026-05-07 10:37 | 23.79860 | 116.44744 | 10429 ft | 270 kts | 334° |
| 2026-05-07 10:37 | 23.81613 | 116.43967 | 11101 ft | 273 kts | 334° |
| 2026-05-07 10:37 | 23.83381 | 116.43180 | 11740 ft | 276 kts | 334° |
| 2026-05-07 10:38 | 23.85174 | 116.42467 | 12395 ft | 281 kts | 343° |
| 2026-05-07 10:38 | 23.87161 | 116.42222 | 12805 ft | 300 kts | 358° |
| 2026-05-07 10:38 | 23.89330 | 116.42312 | 12944 ft | 323 kts | 359° |
| 2026-05-07 10:38 | 23.91647 | 116.42424 | 13073 ft | 344 kts | 360° |
| 2026-05-07 10:39 | 23.94108 | 116.42548 | 13199 ft | 363 kts | 360° |
| 2026-05-07 10:39 | 23.96683 | 116.42677 | 13471 ft | 375 kts | 360° |
| 2026-05-07 10:39 | 23.99306 | 116.42808 | 13955 ft | 381 kts | 0° |
| 2026-05-07 10:39 | 24.01963 | 116.42938 | 14494 ft | 383 kts | 360° |
| 2026-05-07 10:40 | 24.04643 | 116.43066 | 15045 ft | 386 kts | 360° |
| 2026-05-07 10:40 | 24.07338 | 116.43190 | 15559 ft | 389 kts | 359° |
| 2026-05-07 10:40 | 24.10039 | 116.43540 | 16058 ft | 397 kts | 13° |
| 2026-05-07 10:40 | 24.12543 | 116.44861 | 16549 ft | 406 kts | 35° |
| 2026-05-07 10:41 | 24.14481 | 116.47129 | 17019 ft | 414 kts | 57° |
| 2026-05-07 10:41 | 24.15550 | 116.50069 | 17485 ft | 420 kts | 80° |
| 2026-05-07 10:41 | 24.15669 | 116.53261 | 17944 ft | 423 kts | 92° |
| 2026-05-07 10:41 | 24.15552 | 116.56487 | 18377 ft | 425 kts | 93° |
| 2026-05-07 10:42 | 24.15408 | 116.59730 | 18803 ft | 428 kts | 94° |
| 2026-05-07 10:42 | 24.15256 | 116.62993 | 19218 ft | 430 kts | 94° |
| 2026-05-07 10:42 | 24.15103 | 116.66269 | 19620 ft | 433 kts | 94° |
| 2026-05-07 10:42 | 24.14955 | 116.69569 | 20031 ft | 436 kts | 93° |
| 2026-05-07 10:43 | 24.14813 | 116.72886 | 20431 ft | 438 kts | 93° |
| 2026-05-07 10:43 | 24.14676 | 116.76239 | 20829 ft | 441 kts | 93° |
| 2026-05-07 10:43 | 24.14542 | 116.79559 | 21217 ft | 444 kts | 93° |
| 2026-05-07 10:43 | 24.14406 | 116.82942 | 21604 ft | 447 kts | 93° |
| 2026-05-07 10:44 | 24.14270 | 116.86346 | 21985 ft | 449 kts | 93° |
| 2026-05-07 10:44 | 24.14176 | 116.89780 | 22320 ft | 452 kts | 91° |
| 2026-05-07 10:44 | 24.14142 | 116.93228 | 22694 ft | 455 kts | 90° |
| 2026-05-07 10:44 | 24.14146 | 116.96701 | 23061 ft | 457 kts | 90° |
| 2026-05-07 10:45 | 24.14162 | 117.00196 | 23400 ft | 460 kts | 90° |
| 2026-05-07 10:45 | 24.14172 | 117.03706 | 23708 ft | 463 kts | 90° |
| 2026-05-07 10:45 | 24.14171 | 117.07241 | 24003 ft | 465 kts | 90° |
| 2026-05-07 10:45 | 24.14156 | 117.10790 | 24305 ft | 467 kts | 90° |
| 2026-05-07 10:46 | 24.14128 | 117.14361 | 24596 ft | 469 kts | 90° |
| 2026-05-07 10:46 | 24.14092 | 117.17936 | 24887 ft | 471 kts | 91° |
| 2026-05-07 10:46 | 24.14053 | 117.21529 | 25164 ft | 473 kts | 91° |
| 2026-05-07 10:46 | 24.14013 | 117.25133 | 25444 ft | 475 kts | 91° |
| 2026-05-07 10:47 | 24.13978 | 117.28751 | 25738 ft | 477 kts | 91° |
| 2026-05-07 10:47 | 24.13950 | 117.32389 | 26032 ft | 479 kts | 90° |
| 2026-05-07 10:47 | 24.13929 | 117.36051 | 26295 ft | 481 kts | 90° |
| 2026-05-07 10:47 | 24.13905 | 117.39719 | 26585 ft | 483 kts | 90° |
| 2026-05-07 10:48 | 24.13959 | 117.43399 | 26853 ft | 485 kts | 85° |
| 2026-05-07 10:48 | 24.14509 | 117.47045 | 27112 ft | 486 kts | 75° |
| 2026-05-07 10:48 | 24.15607 | 117.50540 | 27378 ft | 487 kts | 64° |
| 2026-05-07 10:48 | 24.17223 | 117.53785 | 27619 ft | 487 kts | 54° |
| 2026-05-07 10:49 | 24.19306 | 117.56703 | 27867 ft | 486 kts | 45° |
| 2026-05-07 10:49 | 24.21593 | 117.59435 | 28108 ft | 488 kts | 45° |
| 2026-05-07 10:49 | 24.23892 | 117.62184 | 28352 ft | 490 kts | 45° |
| 2026-05-07 10:49 | 24.26196 | 117.64945 | 28584 ft | 492 kts | 45° |
| 2026-05-07 10:50 | 24.28506 | 117.67718 | 28820 ft | 493 kts | 45° |
| 2026-05-07 10:50 | 24.30817 | 117.70498 | 28971 ft | 494 kts | 46° |
| 2026-05-07 10:50 | 24.35390 | 117.76016 | 29003 ft | 487 kts | 46° |
| 2026-05-07 10:51 | 24.39945 | 117.81502 | 29002 ft | 486 kts | 46° |
| 2026-05-07 10:51 | 24.44488 | 117.86985 | 28992 ft | 485 kts | 46° |
| 2026-05-07 10:52 | 24.49001 | 117.92434 | 29005 ft | 485 kts | 45° |
| 2026-05-07 10:52 | 24.53538 | 117.97907 | 29001 ft | 485 kts | 45° |
| 2026-05-07 10:53 | 24.58087 | 118.03380 | 29005 ft | 484 kts | 45° |
| 2026-05-07 10:53 | 24.62752 | 118.08717 | 28988 ft | 484 kts | 43° |
| 2026-05-07 10:54 | 24.67481 | 118.13990 | 29010 ft | 484 kts | 43° |
| 2026-05-07 10:54 | 24.72181 | 118.19277 | 29014 ft | 483 kts | 44° |
| 2026-05-07 10:55 | 24.76846 | 118.24600 | 29009 ft | 483 kts | 44° |
| 2026-05-07 10:55 | 24.81499 | 118.29942 | 29007 ft | 483 kts | 44° |
| 2026-05-07 10:56 | 24.86126 | 118.35239 | 29012 ft | 483 kts | 44° |
| 2026-05-07 10:56 | 24.90788 | 118.40560 | 29008 ft | 483 kts | 43° |
| 2026-05-07 10:57 | 24.95474 | 118.45922 | 29008 ft | 483 kts | 44° |
| 2026-05-07 10:57 | 25.00109 | 118.51231 | 29008 ft | 483 kts | 44° |
| 2026-05-07 10:58 | 25.04767 | 118.56580 | 29014 ft | 483 kts | 44° |
| 2026-05-07 10:58 | 25.09422 | 118.61932 | 29032 ft | 483 kts | 44° |
| 2026-05-07 10:59 | 25.14015 | 118.67360 | 29020 ft | 484 kts | 45° |
| 2026-05-07 10:59 | 25.18542 | 118.72885 | 29008 ft | 486 kts | 45° |
| 2026-05-07 11:00 | 25.23081 | 118.78419 | 29009 ft | 487 kts | 45° |
| 2026-05-07 11:00 | 25.27652 | 118.83950 | 29017 ft | 487 kts | 45° |
| 2026-05-07 11:01 | 25.32228 | 118.89483 | 29023 ft | 488 kts | 45° |
| 2026-05-07 11:01 | 25.36816 | 118.95000 | 29029 ft | 488 kts | 44° |
| 2026-05-07 11:02 | 25.41487 | 119.00439 | 29026 ft | 488 kts | 44° |
| 2026-05-07 11:02 | 25.46188 | 119.05864 | 29023 ft | 488 kts | 44° |
| 2026-05-07 11:03 | 25.50871 | 119.11310 | 29023 ft | 488 kts | 44° |
| 2026-05-07 11:03 | 25.55533 | 119.16779 | 29031 ft | 488 kts | 44° |
| 2026-05-07 11:04 | 25.60185 | 119.22254 | 29030 ft | 488 kts | 44° |
| 2026-05-07 11:04 | 25.64812 | 119.27698 | 29025 ft | 487 kts | 44° |
| 2026-05-07 11:05 | 25.69466 | 119.33158 | 29029 ft | 487 kts | 44° |
| 2026-05-07 11:05 | 25.74604 | 119.37943 | 29033 ft | 479 kts | 27° |
| 2026-05-07 11:06 | 25.80668 | 119.40774 | 29028 ft | 471 kts | 13° |
| 2026-05-07 11:06 | 25.86936 | 119.42888 | 29018 ft | 471 kts | 13° |
| 2026-05-07 11:07 | 25.93199 | 119.45009 | 29017 ft | 471 kts | 13° |
| 2026-05-07 11:07 | 25.99465 | 119.47141 | 29029 ft | 470 kts | 13° |
| 2026-05-07 11:08 | 26.05721 | 119.49274 | 29032 ft | 470 kts | 13° |
| 2026-05-07 11:08 | 26.11963 | 119.51404 | 29031 ft | 469 kts | 13° |
| 2026-05-07 11:09 | 26.18168 | 119.53523 | 29032 ft | 469 kts | 13° |
| 2026-05-07 11:09 | 26.24246 | 119.56381 | 29026 ft | 476 kts | 28° |
| 2026-05-07 11:10 | 26.29815 | 119.60286 | 29032 ft | 476 kts | 29° |
| 2026-05-07 11:10 | 26.35421 | 119.64222 | 29031 ft | 476 kts | 29° |
| 2026-05-07 11:11 | 26.41034 | 119.68151 | 29034 ft | 475 kts | 29° |
| 2026-05-07 11:11 | 26.46638 | 119.72085 | 29030 ft | 475 kts | 29° |
| 2026-05-07 11:12 | 26.52247 | 119.76021 | 29027 ft | 476 kts | 29° |
| 2026-05-07 11:12 | 26.57859 | 119.79957 | 29018 ft | 477 kts | 29° |
| 2026-05-07 11:13 | 26.63437 | 119.83877 | 29018 ft | 477 kts | 29° |
| 2026-05-07 11:13 | 26.69070 | 119.87836 | 29024 ft | 477 kts | 29° |
| 2026-05-07 11:14 | 26.74698 | 119.91788 | 29034 ft | 478 kts | 28° |
| 2026-05-07 11:14 | 26.80294 | 119.95743 | 29030 ft | 478 kts | 29° |
| 2026-05-07 11:15 | 26.85915 | 119.99722 | 29032 ft | 478 kts | 29° |
| 2026-05-07 11:15 | 26.91539 | 120.03710 | 29032 ft | 478 kts | 29° |
| 2026-05-07 11:16 | 26.97169 | 120.07696 | 29049 ft | 478 kts | 28° |
| 2026-05-07 11:16 | 27.02795 | 120.11685 | 29044 ft | 478 kts | 28° |
| 2026-05-07 11:17 | 27.08424 | 120.15689 | 29034 ft | 479 kts | 28° |
| 2026-05-07 11:17 | 27.14058 | 120.19699 | 29034 ft | 480 kts | 28° |
| 2026-05-07 11:18 | 27.19712 | 120.23697 | 29049 ft | 480 kts | 28° |
| 2026-05-07 11:18 | 27.25385 | 120.27692 | 29046 ft | 480 kts | 28° |
| 2026-05-07 11:19 | 27.30088 | 120.31007 | 29042 ft | 480 kts | 28° |
| 2026-05-07 11:19 | 27.36665 | 120.35661 | 29044 ft | 480 kts | 28° |
| 2026-05-07 11:20 | 27.42321 | 120.39675 | 29058 ft | 480 kts | 28° |
| 2026-05-07 11:20 | 27.47054 | 120.43041 | 29048 ft | 480 kts | 28° |
| 2026-05-07 11:21 | 27.52696 | 120.47068 | 29053 ft | 480 kts | 28° |
| 2026-05-07 11:21 | 27.58295 | 120.51064 | 29045 ft | 479 kts | 28° |
| 2026-05-07 11:22 | 27.63973 | 120.55111 | 29047 ft | 479 kts | 28° |
| 2026-05-07 11:22 | 27.69608 | 120.59132 | 29045 ft | 479 kts | 28° |
| 2026-05-07 11:23 | 27.75475 | 120.62423 | 29047 ft | 469 kts | 12° |
| 2026-05-07 11:23 | 27.81808 | 120.63621 | 29040 ft | 459 kts | 359° |
| 2026-05-07 11:24 | 27.88182 | 120.64204 | 29043 ft | 460 kts | 359° |
| 2026-05-07 11:24 | 27.94563 | 120.64817 | 29046 ft | 460 kts | 359° |
| 2026-05-07 11:25 | 28.00956 | 120.65428 | 29045 ft | 461 kts | 359° |
| 2026-05-07 11:25 | 28.07345 | 120.66024 | 29078 ft | 461 kts | 359° |
| 2026-05-07 11:26 | 28.13719 | 120.66647 | 29088 ft | 459 kts | 358° |
| 2026-05-07 11:26 | 28.20063 | 120.67282 | 29087 ft | 457 kts | 358° |
| 2026-05-07 11:27 | 28.26390 | 120.67907 | 29087 ft | 455 kts | 358° |
| 2026-05-07 11:27 | 28.32698 | 120.68523 | 29086 ft | 454 kts | 358° |
| 2026-05-07 11:28 | 28.38958 | 120.69136 | 29091 ft | 454 kts | 358° |
| 2026-05-07 11:28 | 28.45278 | 120.69759 | 29078 ft | 452 kts | 358° |
| 2026-05-07 11:29 | 28.51513 | 120.70384 | 29083 ft | 452 kts | 358° |
| 2026-05-07 11:29 | 28.57785 | 120.71015 | 29080 ft | 452 kts | 359° |
| 2026-05-07 11:30 | 28.64060 | 120.71648 | 29057 ft | 453 kts | 359° |
| 2026-05-07 11:30 | 28.70341 | 120.72284 | 29048 ft | 453 kts | 359° |
| 2026-05-07 11:31 | 28.76636 | 120.72965 | 29042 ft | 454 kts | 359° |
| 2026-05-07 11:31 | 28.82921 | 120.73673 | 29064 ft | 454 kts | 359° |
| 2026-05-07 11:32 | 28.92373 | 120.74693 | 29051 ft | 455 kts | 358° |
| 2026-05-07 11:33 | 28.98679 | 120.75323 | 29042 ft | 455 kts | 358° |
| 2026-05-07 11:33 | 29.05003 | 120.75958 | 29047 ft | 455 kts | 359° |
| 2026-05-07 11:34 | 29.11310 | 120.76612 | 29076 ft | 455 kts | 358° |
| 2026-05-07 11:34 | 29.17616 | 120.77266 | 29064 ft | 454 kts | 358° |
| 2026-05-07 11:35 | 29.23898 | 120.77917 | 29063 ft | 454 kts | 358° |
| 2026-05-07 11:35 | 29.30153 | 120.78566 | 29074 ft | 454 kts | 358° |
| 2026-05-07 11:36 | 29.36440 | 120.79224 | 29095 ft | 453 kts | 358° |
| 2026-05-07 11:36 | 29.42713 | 120.79880 | 29085 ft | 452 kts | 358° |
| 2026-05-07 11:37 | 29.48972 | 120.80527 | 29078 ft | 451 kts | 358° |
| 2026-05-07 11:37 | 29.55221 | 120.81465 | 29099 ft | 462 kts | 8° |
| 2026-05-07 11:37 | 29.58250 | 120.82828 | 29093 ft | 474 kts | 20° |
| 2026-05-07 11:38 | 29.61037 | 120.84924 | 29082 ft | 486 kts | 33° |
| 2026-05-07 11:38 | 29.63433 | 120.87724 | 29074 ft | 497 kts | 47° |
| 2026-05-07 11:38 | 29.65394 | 120.91014 | 29069 ft | 501 kts | 51° |
| 2026-05-07 11:39 | 29.69205 | 120.97667 | 29041 ft | 501 kts | 52° |
| 2026-05-07 11:39 | 29.73032 | 121.04357 | 29051 ft | 500 kts | 52° |
| 2026-05-07 11:39 | 29.74947 | 121.07707 | 28878 ft | 501 kts | 52° |
| 2026-05-07 11:40 | 29.76853 | 121.11037 | 28134 ft | 500 kts | 52° |
| 2026-05-07 11:40 | 29.78762 | 121.14379 | 27442 ft | 497 kts | 52° |
| 2026-05-07 11:40 | 29.80653 | 121.17695 | 27088 ft | 495 kts | 52° |
| 2026-05-07 11:40 | 29.82541 | 121.21005 | 26716 ft | 494 kts | 52° |
| 2026-05-07 11:41 | 29.84422 | 121.24308 | 26030 ft | 494 kts | 53° |
| 2026-05-07 11:41 | 29.86319 | 121.27638 | 24965 ft | 500 kts | 53° |
| 2026-05-07 11:41 | 29.88321 | 121.30887 | 24197 ft | 495 kts | 46° |
| 2026-05-07 11:41 | 29.90731 | 121.33665 | 23545 ft | 485 kts | 35° |
| 2026-05-07 11:42 | 29.93470 | 121.35851 | 22805 ft | 474 kts | 24° |
| 2026-05-07 11:42 | 29.96349 | 121.37652 | 22104 ft | 469 kts | 24° |
| 2026-05-07 11:42 | 29.99207 | 121.39438 | 21468 ft | 464 kts | 24° |
| 2026-05-07 11:42 | 30.02027 | 121.41205 | 20858 ft | 459 kts | 24° |
| 2026-05-07 11:43 | 30.04810 | 121.42950 | 20234 ft | 454 kts | 23° |
| 2026-05-07 11:43 | 30.07574 | 121.44679 | 19656 ft | 449 kts | 23° |
| 2026-05-07 11:43 | 30.10312 | 121.46395 | 19088 ft | 445 kts | 23° |
| 2026-05-07 11:43 | 30.13011 | 121.48091 | 18633 ft | 437 kts | 23° |
| 2026-05-07 11:44 | 30.15661 | 121.49759 | 18072 ft | 433 kts | 23° |
| 2026-05-07 11:44 | 30.18290 | 121.51415 | 17453 ft | 428 kts | 23° |
| 2026-05-07 11:44 | 30.20898 | 121.53054 | 16815 ft | 425 kts | 24° |
| 2026-05-07 11:44 | 30.23480 | 121.54675 | 16301 ft | 419 kts | 24° |
| 2026-05-07 11:45 | 30.26039 | 121.56281 | 15716 ft | 416 kts | 24° |
| 2026-05-07 11:45 | 30.28567 | 121.57890 | 15098 ft | 414 kts | 24° |
| 2026-05-07 11:45 | 30.31062 | 121.59506 | 14652 ft | 408 kts | 24° |
| 2026-05-07 11:45 | 30.33527 | 121.61112 | 14092 ft | 406 kts | 25° |
| 2026-05-07 11:46 | 30.35982 | 121.62712 | 13528 ft | 403 kts | 25° |
| 2026-05-07 11:46 | 30.38405 | 121.64319 | 12936 ft | 400 kts | 26° |
| 2026-05-07 11:46 | 30.40790 | 121.65969 | 12332 ft | 398 kts | 27° |
| 2026-05-07 11:46 | 30.43143 | 121.67638 | 11736 ft | 395 kts | 27° |
| 2026-05-07 11:47 | 30.45470 | 121.69305 | 11166 ft | 392 kts | 28° |
| 2026-05-07 11:47 | 30.47748 | 121.70939 | 10990 ft | 377 kts | 28° |
| 2026-05-07 11:47 | 30.49937 | 121.72503 | 10867 ft | 361 kts | 27° |
| 2026-05-07 11:47 | 30.52004 | 121.73974 | 10741 ft | 335 kts | 27° |
| 2026-05-07 11:48 | 30.53934 | 121.75341 | 10491 ft | 317 kts | 27° |
| 2026-05-07 11:48 | 30.55878 | 121.76412 | 10011 ft | 303 kts | 11° |
| 2026-05-07 11:48 | 30.57889 | 121.76747 | 9732 ft | 292 kts | 354° |
| 2026-05-07 11:48 | 30.59879 | 121.76423 | 9637 ft | 286 kts | 339° |
| 2026-05-07 11:49 | 30.61768 | 121.75722 | 9505 ft | 285 kts | 338° |
| 2026-05-07 11:49 | 30.63653 | 121.75013 | 9357 ft | 284 kts | 338° |
| 2026-05-07 11:49 | 30.65528 | 121.74306 | 9334 ft | 279 kts | 337° |
| 2026-05-07 11:49 | 30.67387 | 121.73595 | 9727 ft | 284 kts | 337° |
| 2026-05-07 11:50 | 30.69289 | 121.72863 | 9676 ft | 289 kts | 337° |
| 2026-05-07 11:50 | 30.71182 | 121.72137 | 9418 ft | 285 kts | 338° |
| 2026-05-07 11:50 | 30.73072 | 121.71431 | 9076 ft | 285 kts | 338° |
| 2026-05-07 11:50 | 30.74964 | 121.70729 | 8641 ft | 286 kts | 338° |
| 2026-05-07 11:51 | 30.76853 | 121.70032 | 8338 ft | 281 kts | 338° |
| 2026-05-07 11:51 | 30.78708 | 121.69343 | 8194 ft | 279 kts | 339° |
| 2026-05-07 11:51 | 30.80543 | 121.68658 | 8045 ft | 277 kts | 338° |
| 2026-05-07 11:51 | 30.82374 | 121.67970 | 7902 ft | 276 kts | 338° |
| 2026-05-07 11:52 | 30.84199 | 121.67285 | 7776 ft | 275 kts | 338° |
| 2026-05-07 11:52 | 30.86021 | 121.66601 | 7623 ft | 275 kts | 338° |
| 2026-05-07 11:52 | 30.87817 | 121.65919 | 7468 ft | 272 kts | 338° |
| 2026-05-07 11:52 | 30.89603 | 121.65259 | 7328 ft | 261 kts | 342° |
| 2026-05-07 11:53 | 30.91368 | 121.65278 | 7178 ft | 259 kts | 15° |
| 2026-05-07 11:53 | 30.92889 | 121.66460 | 7064 ft | 267 kts | 51° |
| 2026-05-07 11:53 | 30.93670 | 121.68387 | 6931 ft | 269 kts | 71° |
| 2026-05-07 11:53 | 30.94232 | 121.70468 | 6774 ft | 270 kts | 78° |
| 2026-05-07 11:54 | 30.94183 | 121.72608 | 6612 ft | 267 kts | 109° |
| 2026-05-07 11:54 | 30.93238 | 121.74413 | 6446 ft | 261 kts | 139° |
| 2026-05-07 11:54 | 30.91691 | 121.75456 | 6299 ft | 257 kts | 163° |
| 2026-05-07 11:54 | 30.89985 | 121.76098 | 6140 ft | 258 kts | 165° |
| 2026-05-07 11:55 | 30.88278 | 121.76735 | 5994 ft | 257 kts | 163° |
| 2026-05-07 11:55 | 30.86575 | 121.77368 | 5840 ft | 257 kts | 164° |
| 2026-05-07 11:55 | 30.84873 | 121.78004 | 5702 ft | 257 kts | 163° |
| 2026-05-07 11:55 | 30.83170 | 121.78646 | 5573 ft | 256 kts | 163° |
| 2026-05-07 11:56 | 30.81475 | 121.79287 | 5444 ft | 256 kts | 163° |
| 2026-05-07 11:56 | 30.79788 | 121.79926 | 5311 ft | 254 kts | 162° |
| 2026-05-07 11:56 | 30.78139 | 121.80548 | 5140 ft | 245 kts | 162° |
| 2026-05-07 11:56 | 30.76531 | 121.81151 | 5020 ft | 242 kts | 162° |
| 2026-05-07 11:57 | 30.74977 | 121.81903 | 4889 ft | 242 kts | 143° |
| 2026-05-07 11:57 | 30.73931 | 121.83383 | 4765 ft | 240 kts | 110° |
| 2026-05-07 11:57 | 30.73723 | 121.85272 | 4614 ft | 237 kts | 79° |
| 2026-05-07 11:57 | 30.74356 | 121.87029 | 4495 ft | 237 kts | 60° |
| 2026-05-07 11:58 | 30.75006 | 121.88789 | 4355 ft | 237 kts | 70° |
| 2026-05-07 11:58 | 30.75492 | 121.90620 | 4240 ft | 236 kts | 69° |
| 2026-05-07 11:58 | 30.76412 | 121.92127 | 4111 ft | 228 kts | 32° |
| 2026-05-07 11:58 | 30.77884 | 121.92550 | 3986 ft | 218 kts | 352° |
| 2026-05-07 11:59 | 30.79325 | 121.92126 | 3859 ft | 210 kts | 343° |
| 2026-05-07 11:59 | 30.80691 | 121.91596 | 3743 ft | 203 kts | 341° |
| 2026-05-07 11:59 | 30.82015 | 121.91061 | 3643 ft | 200 kts | 341° |
| 2026-05-07 11:59 | 30.83310 | 121.90542 | 3545 ft | 193 kts | 342° |
| 2026-05-07 12:00 | 30.84561 | 121.90048 | 3487 ft | 187 kts | 342° |
| 2026-05-07 12:00 | 30.85780 | 121.89571 | 3382 ft | 187 kts | 343° |
| 2026-05-07 12:00 | 30.87008 | 121.89095 | 3286 ft | 186 kts | 342° |
| 2026-05-07 12:00 | 30.88239 | 121.88615 | 3185 ft | 187 kts | 342° |
| 2026-05-07 12:01 | 30.89474 | 121.88136 | 3109 ft | 187 kts | 342° |
| 2026-05-07 12:01 | 30.90710 | 121.87667 | 3032 ft | 186 kts | 343° |
| 2026-05-07 12:01 | 30.91938 | 121.87204 | 3030 ft | 184 kts | 344° |
| 2026-05-07 12:01 | 30.93152 | 121.86748 | 3033 ft | 183 kts | 344° |
| 2026-05-07 12:02 | 30.94366 | 121.86292 | 3034 ft | 184 kts | 343° |
| 2026-05-07 12:02 | 30.95584 | 121.85834 | 3035 ft | 183 kts | 344° |
| 2026-05-07 12:02 | 30.96794 | 121.85379 | 3032 ft | 183 kts | 344° |
| 2026-05-07 12:02 | 30.97974 | 121.84934 | 2930 ft | 171 kts | 343° |
| 2026-05-07 12:03 | 30.99051 | 121.84529 | 2759 ft | 155 kts | 343° |
| 2026-05-07 12:03 | 31.00031 | 121.84159 | 2573 ft | 142 kts | 344° |
| 2026-05-07 12:03 | 31.00948 | 121.83815 | 2395 ft | 137 kts | 344° |
| 2026-05-07 12:03 | 31.01842 | 121.83478 | 2232 ft | 131 kts | 345° |
| 2026-05-07 12:04 | 31.02414 | 121.83263 | 2109 ft | 129 kts | 345° |
| 2026-05-07 12:04 | 31.03531 | 121.82842 | 1880 ft | 127 kts | 344° |
| 2026-05-07 12:04 | 31.04377 | 121.82524 | 1712 ft | 126 kts | 344° |
| 2026-05-07 12:04 | 31.04933 | 121.82314 | 1603 ft | 126 kts | 345° |
| 2026-05-07 12:05 | 31.05764 | 121.82001 | 1424 ft | 126 kts | 345° |
| 2026-05-07 12:05 | 31.06862 | 121.81588 | 1205 ft | 124 kts | 345° |
| 2026-05-07 12:05 | 31.07683 | 121.81278 | 1040 ft | 124 kts | 345° |
| 2026-05-07 12:05 | 31.08239 | 121.81068 | 926 ft | 124 kts | 345° |
| 2026-05-07 12:06 | 31.09068 | 121.80756 | 769 ft | 126 kts | 344° |
| 2026-05-07 12:06 | 31.09903 | 121.80441 | 596 ft | 128 kts | 343° |
| 2026-05-07 12:06 | 31.10733 | 121.80126 | 456 ft | 124 kts | 345° |
| 2026-05-07 12:06 | 31.11575 | 121.79807 | 251 ft | 126 kts | 344° |
| 2026-05-07 12:07 | 31.12428 | 121.79484 | 85 ft | 129 kts | 342° |
| 2026-05-07 12:07 | 31.13267 | 121.79162 | 14 ft | 108 kts | 342° |
| 2026-05-07 12:07 | 31.13509 | 121.79069 | 13 ft | 0 kts | 342° |